Lisbon, Wisconsin
Current Conditions -  °F | °C
As of 9:35 PM on Sunday 21 Dec 2014 (Local Time) from KUES Reporting Station
Overcast Overcast  
Wind Chill: 24°   Ceiling: 2100
Heat Index: 32°   Visibility: 7mi
Dew Point: 28°   Wind: 10mph
Humidity: 87%   Direction: 150°SSE
Pressure: 30.01"   Gusts: NA
Location:  43.1492°N, 88.2347°W
Report Text: KUES 220335Z AUTO 15009KT 7SM OVC021 00/M02 A3001 RMK AO2
Loading
Personal Weather Stations






























Interactive Weather Map New forecast layout! Learn more

10-Day Weather Forecast

Advertisements
Track Severe Weather on mobile